Time;durP1;ratioP1;P1;durP2;ratioP2;P2;SDS_P1;SDS_P2;PMS_P1;PMS_P2;Temp;Humidity;BMP_temperature;BMP_pressure;BME280_temperature;BME280_humidity;BME280_pressure;Samples;Min_cycle;Max_cycle;Signal;HPM_P1;HPM_P2
2022/08/02 00:00:41;;;;;;;0.82;0.70;;;25.30;64.30;;;;;;5041076;28;20060;-76
2022/08/02 00:03:06;;;;;;;1.88;0.90;;;25.30;64.40;;;;;;5039280;28;20021;-76
2022/08/02 00:05:32;;;;;;;0.60;0.60;;;25.20;64.30;;;;;;5044636;28;20014;-76
2022/08/02 00:07:57;;;;;;;0.80;0.70;;;25.30;64.30;;;;;;5049591;28;20031;-76
2022/08/02 00:10:24;;;;;;;0.80;0.60;;;25.20;64.20;;;;;;5040667;28;20022;-76
2022/08/02 00:12:50;;;;;;;0.60;0.60;;;25.20;64.50;;;;;;5034458;28;20026;-76
2022/08/02 00:15:15;;;;;;;0.82;0.82;;;25.20;64.30;;;;;;5034329;28;20525;-76
2022/08/02 00:17:41;;;;;;;0.70;0.63;;;25.20;64.60;;;;;;5035291;28;20026;-76
2022/08/02 00:20:07;;;;;;;0.70;0.70;;;25.20;64.50;;;;;;5035724;28;20049;-76
2022/08/02 00:22:33;;;;;;;0.60;0.60;;;25.20;64.60;;;;;;5035585;28;20029;-76
2022/08/02 00:24:58;;;;;;;1.58;0.65;;;25.20;64.70;;;;;;5035440;28;20040;-76
2022/08/02 00:27:24;;;;;;;0.95;0.70;;;25.20;64.90;;;;;;5035310;28;20388;-76
2022/08/02 00:29:50;;;;;;;0.70;0.70;;;25.20;64.90;;;;;;5035088;28;20609;-77
2022/08/02 00:32:16;;;;;;;0.95;0.77;;;25.20;64.80;;;;;;5035135;28;20033;-77
2022/08/02 00:34:42;;;;;;;1.35;1.00;;;25.20;64.70;;;;;;5034627;28;20048;-77
2022/08/02 00:37:07;;;;;;;1.90;0.60;;;25.20;64.90;;;;;;5035189;28;20053;-76
2022/08/02 00:39:33;;;;;;;1.40;0.85;;;25.20;65.00;;;;;;5035242;28;20018;-77
2022/08/02 00:41:59;;;;;;;0.60;0.60;;;25.20;64.70;;;;;;5035003;28;20033;-77
2022/08/02 00:44:24;;;;;;;0.57;0.57;;;25.20;64.80;;;;;;5044112;28;20029;-77
2022/08/02 00:46:50;;;;;;;0.85;0.85;;;25.20;64.90;;;;;;5054550;28;20036;-76
2022/08/02 00:49:16;;;;;;;1.38;0.65;;;25.20;64.90;;;;;;5055002;28;20029;-76
2022/08/02 00:51:41;;;;;;;1.55;0.70;;;25.20;65.00;;;;;;5054747;28;20025;-77
2022/08/02 00:54:07;;;;;;;0.70;0.70;;;25.20;64.90;;;;;;5054930;28;20025;-76
2022/08/02 00:56:33;;;;;;;1.15;0.70;;;25.20;64.90;;;;;;5053606;28;20021;-76
2022/08/02 00:58:59;;;;;;;2.22;0.80;;;25.20;64.90;;;;;;5053397;28;20098;-77
2022/08/02 01:01:37;;;;;;;1.02;0.70;;;25.20;65.00;;;;;;5036021;28;20053;-76
2022/08/02 01:04:07;;;;;;;0.60;0.60;;;25.10;64.90;;;;;;5034819;28;20029;-76
2022/08/02 01:06:32;;;;;;;1.83;0.63;;;25.20;64.90;;;;;;5033448;28;20394;-76
2022/08/02 01:08:59;;;;;;;1.13;0.60;;;25.10;64.90;;;;;;5030037;28;20097;-76
2022/08/02 01:11:25;;;;;;;0.88;0.80;;;25.20;65.00;;;;;;5013661;28;20069;-76
2022/08/02 01:13:51;;;;;;;0.68;0.68;;;25.20;64.90;;;;;;5014473;28;20480;-77
2022/08/02 01:16:19;;;;;;;0.70;0.70;;;25.10;64.80;;;;;;5013287;28;20021;-77
2022/08/02 01:18:50;;;;;;;1.30;0.70;;;25.20;65.00;;;;;;5013461;28;20018;-77
2022/08/02 01:21:46;;;;;;;0.60;0.60;;;25.20;65.00;;;;;;5013533;28;20030;-77
2022/08/02 01:24:29;;;;;;;0.50;0.50;;;25.10;64.90;;;;;;5013289;28;20025;-77
2022/08/02 01:27:10;;;;;;;0.70;0.70;;;25.10;64.90;;;;;;5013333;28;20033;-77
2022/08/02 01:29:40;;;;;;;1.00;0.80;;;25.10;64.90;;;;;;5013233;28;20056;-76
2022/08/02 01:32:13;;;;;;;0.73;0.70;;;25.10;64.90;;;;;;5012843;28;20018;-77
2022/08/02 01:34:43;;;;;;;1.08;0.70;;;25.10;65.00;;;;;;5013102;28;20026;-76
2022/08/02 01:37:21;;;;;;;1.55;0.90;;;25.10;64.90;;;;;;5014375;28;20140;-77
2022/08/02 01:39:50;;;;;;;0.60;0.60;;;25.10;64.90;;;;;;5012942;28;20052;-76
2022/08/02 01:42:15;;;;;;;0.60;0.60;;;25.10;65.00;;;;;;5013092;28;20026;-76
2022/08/02 01:44:41;;;;;;;0.52;0.52;;;25.10;64.90;;;;;;5012715;28;20438;-76
2022/08/02 01:47:09;;;;;;;1.85;0.82;;;25.10;65.00;;;;;;5012239;28;20026;-76
2022/08/02 01:49:36;;;;;;;1.00;0.65;;;25.10;65.00;;;;;;5012993;28;20113;-76
2022/08/02 01:52:20;;;;;;;0.70;0.70;;;25.10;65.00;;;;;;5012810;28;20026;-76
2022/08/02 01:54:57;;;;;;;1.35;0.60;;;25.10;65.00;;;;;;5012971;28;20021;-76
2022/08/02 01:57:22;;;;;;;0.50;0.50;;;25.10;65.00;;;;;;5012879;28;20475;-76
2022/08/02 01:59:48;;;;;;;1.02;0.70;;;25.10;65.00;;;;;;5012520;28;20101;-76
2022/08/02 02:02:14;;;;;;;0.82;0.82;;;25.10;65.00;;;;;;5028329;28;20021;-76
2022/08/02 02:04:39;;;;;;;1.45;0.60;;;25.10;65.00;;;;;;5032395;28;20033;-77
2022/08/02 02:07:05;;;;;;;0.73;0.73;;;25.10;65.00;;;;;;5032255;28;20021;-77
2022/08/02 02:09:31;;;;;;;0.70;0.70;;;25.10;65.00;;;;;;5032009;28;20075;-76
2022/08/02 02:11:58;;;;;;;1.20;0.60;;;25.10;65.00;;;;;;5048685;28;20033;-76
2022/08/02 02:14:23;;;;;;;0.63;0.55;;;25.10;65.00;;;;;;5048526;28;20017;-76
2022/08/02 02:16:49;;;;;;;1.42;0.90;;;25.10;65.00;;;;;;5065397;28;20028;-76
2022/08/02 02:19:15;;;;;;;1.77;0.80;;;25.10;65.00;;;;;;5033389;28;20061;-76
2022/08/02 02:21:41;;;;;;;0.93;0.60;;;25.10;65.00;;;;;;5048795;28;20039;-76
2022/08/02 02:24:07;;;;;;;0.60;0.60;;;25.10;65.00;;;;;;5065321;28;20499;-76
2022/08/02 02:26:32;;;;;;;0.73;0.60;;;25.10;65.00;;;;;;5065244;28;20024;-76
2022/08/02 02:29:01;;;;;;;0.85;0.85;;;25.10;65.00;;;;;;5048144;28;20053;-76
2022/08/02 02:31:27;;;;;;;0.70;0.70;;;25.10;65.00;;;;;;5065312;28;20036;-76
2022/08/02 02:33:57;;;;;;;0.75;0.60;;;25.10;65.00;;;;;;5048344;28;20021;-76
2022/08/02 02:36:24;;;;;;;0.60;0.60;;;25.10;65.00;;;;;;5048240;28;20041;-76
2022/08/02 02:38:50;;;;;;;0.73;0.60;;;25.00;65.00;;;;;;5048425;28;20022;-76
2022/08/02 02:41:15;;;;;;;1.63;0.60;;;25.10;65.10;;;;;;5064885;28;20491;-76
2022/08/02 02:43:41;;;;;;;1.92;0.73;;;25.10;65.00;;;;;;5064829;28;20050;-76
2022/08/02 02:46:06;;;;;;;2.17;0.80;;;25.00;65.00;;;;;;5064880;28;20033;-76
2022/08/02 02:48:33;;;;;;;0.60;0.60;;;25.10;65.00;;;;;;5065050;28;20071;-76
2022/08/02 02:50:59;;;;;;;0.65;0.65;;;25.00;65.00;;;;;;5047953;28;20411;-76
2022/08/02 02:53:25;;;;;;;0.60;0.60;;;25.10;65.00;;;;;;5032614;28;20018;-76
2022/08/02 02:55:50;;;;;;;1.27;0.80;;;25.00;65.00;;;;;;5047924;28;20561;-76
2022/08/02 02:58:16;;;;;;;1.15;0.70;;;25.00;65.00;;;;;;5047811;28;20430;-76
2022/08/02 03:03:25;;;;;;;0.50;0.50;;;25.00;65.00;;;;;;5031628;28;20526;-76
2022/08/02 03:05:51;;;;;;;0.88;0.88;;;25.00;65.00;;;;;;5031301;28;20060;-76
2022/08/02 03:08:16;;;;;;;0.70;0.70;;;25.00;65.00;;;;;;5031283;28;20060;-75
2022/08/02 03:10:45;;;;;;;1.60;0.60;;;25.00;65.10;;;;;;5031365;28;20108;-75
2022/08/02 03:13:11;;;;;;;0.80;0.80;;;25.00;65.00;;;;;;5030911;28;20026;-76
2022/08/02 03:15:37;;;;;;;0.60;0.60;;;25.00;65.00;;;;;;5031287;28;20021;-75
2022/08/02 03:18:03;;;;;;;0.60;0.60;;;25.00;65.00;;;;;;5031218;28;20014;-76
2022/08/02 03:20:28;;;;;;;1.38;0.60;;;25.00;65.00;;;;;;5032374;28;20033;-75
2022/08/02 03:22:54;;;;;;;0.70;0.70;;;25.00;65.00;;;;;;5032397;28;20021;-75
2022/08/02 03:25:19;;;;;;;0.60;0.52;;;25.00;65.10;;;;;;5032386;28;20029;-76
2022/08/02 03:27:45;;;;;;;0.50;0.50;;;25.00;65.00;;;;;;5031889;28;20036;-75
2022/08/02 03:30:12;;;;;;;0.80;0.63;;;25.00;65.00;;;;;;5031173;28;20506;-76
2022/08/02 03:32:39;;;;;;;1.05;0.70;;;25.00;65.00;;;;;;5030974;28;20120;-76
2022/08/02 03:35:05;;;;;;;2.25;0.50;;;25.00;65.00;;;;;;5031149;28;20484;-76
2022/08/02 03:37:31;;;;;;;0.55;0.55;;;25.00;65.10;;;;;;5031316;28;20103;-76
2022/08/02 03:39:57;;;;;;;0.60;0.60;;;25.00;65.10;;;;;;5030911;28;20045;-76
2022/08/02 03:42:22;;;;;;;0.82;0.82;;;25.00;65.20;;;;;;5030928;28;20025;-75
2022/08/02 03:44:48;;;;;;;1.20;0.60;;;25.00;65.30;;;;;;5031134;28;20025;-75
2022/08/02 03:47:14;;;;;;;0.63;0.60;;;25.00;65.20;;;;;;5030889;28;20480;-75
2022/08/02 03:49:40;;;;;;;0.73;0.60;;;25.00;65.20;;;;;;5031014;28;20423;-76
2022/08/02 03:52:05;;;;;;;0.68;0.50;;;25.00;65.30;;;;;;5031016;28;20450;-76
2022/08/02 03:54:31;;;;;;;1.35;0.77;;;25.00;65.40;;;;;;5031010;28;20019;-76
2022/08/02 03:56:57;;;;;;;0.70;0.70;;;25.00;65.30;;;;;;5030855;28;20029;-76
2022/08/02 03:59:22;;;;;;;1.65;0.80;;;25.00;66.30;;;;;;5031058;28;20025;-76
2022/08/02 04:01:48;;;;;;;3.65;0.82;;;25.00;65.20;;;;;;5031915;28;20021;-76
2022/08/02 04:04:13;;;;;;;0.70;0.70;;;24.90;65.20;;;;;;5032017;28;20083;-76
2022/08/02 04:06:39;;;;;;;1.13;0.65;;;24.90;65.20;;;;;;5031821;28;20061;-76
2022/08/02 04:09:05;;;;;;;0.50;0.50;;;24.90;65.20;;;;;;5064301;28;20488;-76
2022/08/02 04:11:30;;;;;;;2.33;0.60;;;24.90;65.20;;;;;;5034580;28;20479;-76
2022/08/02 04:14:04;;;;;;;0.70;0.70;;;24.90;65.20;;;;;;5035547;28;20034;-76
2022/08/02 04:16:43;;;;;;;0.85;0.50;;;24.90;65.20;;;;;;5034577;28;20101;-76
2022/08/02 04:19:12;;;;;;;0.55;0.43;;;24.90;65.20;;;;;;5034344;28;20479;-76
2022/08/02 04:21:39;;;;;;;2.03;0.60;;;24.90;65.20;;;;;;5034438;28;20017;-76
2022/08/02 04:24:05;;;;;;;0.50;0.50;;;25.00;65.20;;;;;;5034148;28;20021;-76
2022/08/02 04:26:32;;;;;;;0.55;0.50;;;25.00;65.20;;;;;;5034381;28;20476;-76
2022/08/02 04:28:58;;;;;;;0.70;0.70;;;24.90;65.20;;;;;;5034082;28;20096;-76
2022/08/02 04:31:23;;;;;;;0.50;0.50;;;24.90;65.20;;;;;;5034146;28;20075;-76
2022/08/02 04:33:49;;;;;;;0.68;0.65;;;24.90;65.10;;;;;;5033910;28;20112;-76
2022/08/02 04:36:15;;;;;;;0.60;0.60;;;24.90;65.20;;;;;;5034211;28;20083;-76
2022/08/02 04:38:41;;;;;;;0.70;0.70;;;24.90;65.20;;;;;;5035139;28;20022;-76
2022/08/02 04:41:06;;;;;;;0.50;0.50;;;24.90;65.20;;;;;;5035087;28;20036;-76
2022/08/02 04:43:32;;;;;;;1.13;0.60;;;24.90;65.20;;;;;;5035153;28;20025;-76
2022/08/02 04:45:58;;;;;;;0.57;0.52;;;24.90;65.30;;;;;;5034971;28;20442;-76
2022/08/02 04:48:23;;;;;;;0.65;0.65;;;24.90;65.20;;;;;;5016102;28;20025;-76
2022/08/02 04:50:49;;;;;;;0.30;0.30;;;24.90;65.20;;;;;;5034886;28;20031;-76
2022/08/02 04:53:15;;;;;;;0.40;0.40;;;24.90;65.20;;;;;;5033435;28;20064;-76
2022/08/02 04:55:41;;;;;;;0.80;0.57;;;24.90;65.20;;;;;;5033697;28;20057;-76
2022/08/02 04:58:06;;;;;;;0.70;0.70;;;24.90;65.20;;;;;;5033604;28;20154;-75
2022/08/02 05:00:32;;;;;;;0.50;0.50;;;24.90;65.30;;;;;;5034619;28;20034;-75
2022/08/02 05:02:58;;;;;;;0.40;0.40;;;24.90;65.40;;;;;;5033540;28;20372;-75
2022/08/02 05:05:24;;;;;;;1.45;0.50;;;24.90;65.30;;;;;;5018290;28;20427;-75
2022/08/02 05:07:50;;;;;;;0.60;0.60;;;24.90;65.20;;;;;;5013561;28;20032;-75
2022/08/02 05:10:15;;;;;;;0.60;0.60;;;24.90;65.20;;;;;;5027397;28;20105;-75
2022/08/02 05:12:41;;;;;;;0.63;0.50;;;24.90;65.20;;;;;;5034459;28;20029;-75
2022/08/02 05:15:08;;;;;;;0.60;0.60;;;24.90;65.20;;;;;;5033241;28;20083;-75
2022/08/02 05:17:33;;;;;;;2.45;0.50;;;24.90;65.20;;;;;;5033478;28;20383;-76
2022/08/02 05:19:59;;;;;;;0.50;0.50;;;24.90;65.20;;;;;;5032972;28;20029;-75
2022/08/02 05:22:24;;;;;;;3.95;0.60;;;24.90;65.20;;;;;;5033228;28;20056;-76
2022/08/02 05:24:50;;;;;;;0.50;0.50;;;24.90;65.40;;;;;;5034359;28;20105;-76
2022/08/02 05:27:16;;;;;;;0.47;0.47;;;24.90;65.20;;;;;;5033015;28;20442;-76
2022/08/02 05:29:41;;;;;;;0.60;0.60;;;24.90;65.30;;;;;;5016260;28;20080;-76
2022/08/02 05:32:07;;;;;;;0.85;0.60;;;24.90;65.30;;;;;;5034011;28;20029;-76
2022/08/02 05:34:32;;;;;;;0.40;0.40;;;24.90;65.30;;;;;;5034231;28;20026;-76
2022/08/02 05:36:58;;;;;;;0.95;0.60;;;24.90;65.30;;;;;;5033937;28;20044;-76
2022/08/02 05:39:24;;;;;;;0.50;0.50;;;24.90;65.30;;;;;;5034257;28;20487;-75
2022/08/02 05:41:49;;;;;;;0.80;0.60;;;24.90;65.30;;;;;;5037811;28;20024;-75
2022/08/02 05:44:15;;;;;;;0.90;0.82;;;24.90;65.30;;;;;;5065901;28;20022;-76
2022/08/02 05:46:40;;;;;;;0.50;0.50;;;24.90;65.30;;;;;;5052958;28;20021;-76
2022/08/02 05:49:06;;;;;;;2.42;0.50;;;24.90;65.30;;;;;;5052613;28;20029;-75
2022/08/02 05:51:35;;;;;;;0.50;0.47;;;24.90;65.30;;;;;;5052522;28;20017;-75
2022/08/02 05:54:10;;;;;;;1.60;0.52;;;24.90;65.40;;;;;;5044648;28;20033;-76
2022/08/02 05:56:37;;;;;;;0.50;0.50;;;24.90;65.50;;;;;;5045827;28;20570;-76
2022/08/02 05:59:16;;;;;;;0.40;0.40;;;24.90;65.50;;;;;;5040725;28;20017;-76
2022/08/02 06:01:42;;;;;;;0.60;0.57;;;24.90;65.60;;;;;;5064218;28;20491;-76
2022/08/02 06:04:09;;;;;;;0.57;0.52;;;24.90;65.60;;;;;;5043883;28;20033;-77
2022/08/02 06:06:35;;;;;;;0.47;0.47;;;24.90;65.20;;;;;;5038074;28;20430;-77
2022/08/02 06:09:05;;;;;;;0.50;0.50;;;24.90;63.80;;;;;;5033294;28;20018;-76
2022/08/02 06:11:37;;;;;;;0.40;0.40;;;24.80;63.00;;;;;;5033028;28;20049;-76
2022/08/02 06:14:06;;;;;;;1.63;0.50;;;24.80;62.80;;;;;;5030979;28;20099;-76
2022/08/02 06:16:32;;;;;;;0.40;0.40;;;24.80;62.80;;;;;;5037885;28;20017;-76
2022/08/02 06:18:59;;;;;;;0.43;0.43;;;24.80;62.70;;;;;;5041855;28;20390;-76
2022/08/02 06:21:25;;;;;;;0.55;0.55;;;24.70;62.60;;;;;;5063491;28;20079;-77
2022/08/02 06:23:50;;;;;;;0.40;0.40;;;24.70;62.60;;;;;;5037877;28;20040;-76
2022/08/02 06:26:16;;;;;;;0.32;0.32;;;24.70;62.60;;;;;;5040031;28;20029;-77
2022/08/02 06:28:42;;;;;;;0.40;0.40;;;24.70;62.70;;;;;;5021393;28;20046;-76
2022/08/02 06:31:07;;;;;;;0.75;0.75;;;24.70;62.70;;;;;;5047986;28;20029;-76
2022/08/02 06:33:33;;;;;;;1.42;0.50;;;24.70;62.70;;;;;;5008521;28;20450;-76
2022/08/02 06:36:32;;;;;;;0.50;0.50;;;24.70;62.80;;;;;;5044984;28;20013;-76
2022/08/02 06:39:02;;;;;;;0.85;0.40;;;24.70;62.90;;;;;;5033470;28;20033;-77
2022/08/02 06:41:30;;;;;;;0.85;0.80;;;24.70;62.90;;;;;;5038863;28;20028;-76
2022/08/02 06:43:59;;;;;;;26.98;4.47;;;24.60;62.80;;;;;;5064169;28;20527;-76
2022/08/02 06:46:25;;;;;;;22.92;5.53;;;24.70;63.10;;;;;;5048013;28;20416;-76
2022/08/02 06:48:51;;;;;;;19.58;4.47;;;24.60;63.20;;;;;;5064760;28;20029;-76
2022/08/02 06:51:16;;;;;;;8.02;2.88;;;24.60;63.50;;;;;;5031271;28;20411;-76
2022/08/02 06:53:42;;;;;;;7.13;2.13;;;24.60;63.60;;;;;;5064622;28;20056;-76
2022/08/02 06:56:08;;;;;;;7.57;2.00;;;24.60;63.70;;;;;;5064804;28;20026;-76
2022/08/02 06:58:33;;;;;;;7.55;2.30;;;24.60;63.80;;;;;;5064577;28;20071;-76
2022/08/02 07:00:59;;;;;;;7.50;2.40;;;24.60;63.90;;;;;;5032560;28;20068;-76
2022/08/02 07:03:24;;;;;;;6.35;2.40;;;24.60;63.70;;;;;;5032439;28;20112;-76
2022/08/02 07:05:51;;;;;;;7.38;2.25;;;24.60;63.70;;;;;;5031104;28;20391;-76
2022/08/02 07:08:17;;;;;;;5.97;2.45;;;24.60;63.70;;;;;;5031183;28;20522;-76
2022/08/02 07:10:42;;;;;;;8.13;2.38;;;24.60;63.70;;;;;;5029751;28;20026;-76
2022/08/02 07:13:08;;;;;;;7.25;2.17;;;24.60;63.70;;;;;;5031979;28;20104;-76
2022/08/02 07:15:34;;;;;;;7.07;2.38;;;24.60;63.70;;;;;;5031254;28;20025;-76
2022/08/02 07:18:00;;;;;;;8.32;2.72;;;24.60;63.70;;;;;;5031051;28;20506;-76
2022/08/02 07:20:25;;;;;;;9.35;2.20;;;24.60;63.70;;;;;;5032179;28;20057;-76
2022/08/02 07:22:51;;;;;;;8.63;2.55;;;24.60;63.70;;;;;;5032253;28;20034;-76
2022/08/02 07:25:17;;;;;;;8.20;2.65;;;24.60;63.60;;;;;;5032099;28;20037;-76
2022/08/02 07:27:42;;;;;;;5.60;2.20;;;24.60;63.60;;;;;;5032100;28;20028;-76
2022/08/02 07:30:09;;;;;;;8.00;2.55;;;24.60;63.70;;;;;;5031124;28;20029;-76
2022/08/02 07:32:34;;;;;;;5.97;2.03;;;24.60;63.70;;;;;;5031980;28;20026;-76
2022/08/02 07:35:00;;;;;;;6.03;2.72;;;24.50;63.60;;;;;;5032272;28;20033;-76
2022/08/02 07:37:29;;;;;;;9.23;2.50;;;24.60;64.70;;;;;;5030929;28;20080;-76
2022/08/02 07:39:55;;;;;;;6.72;2.35;;;24.60;63.60;;;;;;5031025;28;20056;-76
2022/08/02 07:42:20;;;;;;;6.47;2.28;;;24.50;63.70;;;;;;5030935;28;20048;-76
2022/08/02 07:44:46;;;;;;;7.20;2.75;;;24.50;63.60;;;;;;5033735;28;20029;-76
2022/08/02 07:47:12;;;;;;;5.05;2.28;;;24.50;63.60;;;;;;5035819;28;20029;-76
2022/08/02 07:49:37;;;;;;;5.95;2.45;;;24.50;63.60;;;;;;5034863;28;20021;-76
2022/08/02 07:52:03;;;;;;;4.50;2.47;;;24.50;63.60;;;;;;5036032;28;20025;-76
2022/08/02 07:54:29;;;;;;;6.18;2.40;;;24.50;63.70;;;;;;5034644;28;20100;-76
2022/08/02 07:56:55;;;;;;;5.03;2.33;;;24.50;63.60;;;;;;5036090;28;20017;-76
2022/08/02 07:59:21;;;;;;;5.50;2.50;;;24.50;63.70;;;;;;5035781;28;20018;-76
2022/08/02 08:01:48;;;;;;;6.40;2.35;;;24.50;63.60;;;;;;5017870;28;20121;-76
2022/08/02 08:04:16;;;;;;;7.57;2.63;;;24.50;63.60;;;;;;5035941;28;20078;-76
2022/08/02 08:06:42;;;;;;;7.50;2.60;;;24.50;63.60;;;;;;5035797;28;20116;-76
2022/08/02 08:09:11;;;;;;;7.43;2.45;;;24.50;63.60;;;;;;5034661;28;20108;-76
2022/08/02 08:11:36;;;;;;;8.60;2.58;;;24.40;63.50;;;;;;5034244;28;20037;-76
2022/08/02 08:14:03;;;;;;;4.63;2.35;;;24.50;63.60;;;;;;5034339;28;20046;-76
2022/08/02 08:16:29;;;;;;;6.63;2.47;;;24.40;63.50;;;;;;5034045;28;20108;-76
2022/08/02 08:18:55;;;;;;;4.88;2.17;;;24.40;63.60;;;;;;5018862;28;20077;-76
2022/08/02 08:21:20;;;;;;;7.78;2.45;;;24.40;63.50;;;;;;5015623;28;20527;-76
2022/08/02 08:23:46;;;;;;;7.18;2.20;;;24.40;63.50;;;;;;5014578;28;20026;-76
2022/08/02 08:26:12;;;;;;;7.97;2.75;;;24.40;63.50;;;;;;5014487;28;20026;-76
2022/08/02 08:28:37;;;;;;;7.72;2.35;;;24.40;63.40;;;;;;5014174;28;20075;-76
2022/08/02 08:31:03;;;;;;;9.93;2.47;;;24.40;63.50;;;;;;5015245;28;20510;-76
2022/08/02 08:33:29;;;;;;;8.68;2.40;;;24.40;63.50;;;;;;5015659;28;20105;-76
2022/08/02 08:35:55;;;;;;;5.53;2.20;;;24.40;63.50;;;;;;5014232;28;20030;-76
2022/08/02 08:38:20;;;;;;;7.50;2.70;;;24.40;63.50;;;;;;5015319;28;20562;-76
2022/08/02 08:40:48;;;;;;;5.53;2.33;;;24.40;63.50;;;;;;5015357;28;20049;-76
2022/08/02 08:43:14;;;;;;;5.13;2.22;;;24.40;63.50;;;;;;5014185;28;20472;-76
2022/08/02 08:45:43;;;;;;;5.43;2.28;;;24.40;63.50;;;;;;5013938;28;20032;-76
2022/08/02 08:48:16;;;;;;;5.07;2.80;;;24.40;63.50;;;;;;5014214;28;20117;-76
2022/08/02 08:51:04;;;;;;;5.90;2.42;;;24.40;63.50;;;;;;5014032;28;20030;-76
2022/08/02 08:53:30;;;;;;;5.88;2.33;;;24.40;63.50;;;;;;5013978;28;20037;-76
2022/08/02 08:55:57;;;;;;;5.90;2.55;;;24.40;63.50;;;;;;5013529;28;20030;-76
2022/08/02 08:58:22;;;;;;;9.65;2.42;;;24.40;63.50;;;;;;5013917;28;20489;-76
2022/08/02 09:00:48;;;;;;;6.15;2.17;;;24.40;63.50;;;;;;5017647;28;20033;-76
2022/08/02 09:03:14;;;;;;;6.78;2.50;;;24.40;63.50;;;;;;5034623;28;20068;-76
2022/08/02 09:05:40;;;;;;;5.05;2.17;;;24.40;63.50;;;;;;5033391;28;20025;-76
2022/08/02 09:08:06;;;;;;;6.30;2.20;;;24.40;63.50;;;;;;5033673;28;20021;-76
2022/08/02 09:10:39;;;;;;;7.53;2.65;;;24.40;63.50;;;;;;5033236;28;20029;-76
2022/08/02 09:13:22;;;;;;;5.47;2.35;;;24.40;63.50;;;;;;5034547;28;20028;-76
2022/08/02 09:15:54;;;;;;;5.07;2.25;;;24.40;63.50;;;;;;5034112;28;20445;-76
2022/08/02 09:18:20;;;;;;;4.80;2.03;;;24.30;63.50;;;;;;5034443;28;20063;-76
2022/08/02 09:20:56;;;;;;;5.90;2.47;;;24.30;63.50;;;;;;5033168;28;20033;-76
2022/08/02 09:23:22;;;;;;;4.30;2.13;;;24.30;63.60;;;;;;5033274;28;20105;-76
2022/08/02 09:25:58;;;;;;;5.95;2.25;;;24.30;63.60;;;;;;5033153;28;20104;-76
2022/08/02 09:28:28;;;;;;;3.53;2.00;;;24.30;63.60;;;;;;5032946;28;20042;-76
2022/08/02 09:30:56;;;;;;;6.70;2.83;;;24.30;63.70;;;;;;5033097;28;20039;-76
2022/08/02 09:33:26;;;;;;;7.30;2.45;;;24.30;63.60;;;;;;5032967;28;20048;-76
2022/08/02 09:36:08;;;;;;;5.82;2.38;;;24.30;63.60;;;;;;5032896;28;20056;-76
2022/08/02 09:38:35;;;;;;;5.07;2.45;;;24.30;63.60;;;;;;5032807;28;20088;-76
2022/08/02 09:41:01;;;;;;;4.97;2.28;;;24.30;63.70;;;;;;5033004;28;20061;-76
2022/08/02 09:43:37;;;;;;;7.78;2.55;;;24.30;63.70;;;;;;5033887;28;20026;-76
2022/08/02 09:46:26;;;;;;;6.10;2.28;;;24.30;63.60;;;;;;5032838;28;20064;-76
2022/08/02 09:48:56;;;;;;;5.78;2.65;;;24.30;63.70;;;;;;5034005;28;20496;-76
2022/08/02 09:51:26;;;;;;;5.20;2.20;;;24.30;63.70;;;;;;5032507;28;20029;-76
2022/08/02 09:53:56;;;;;;;8.63;2.50;;;24.30;63.70;;;;;;5032508;28;20017;-77
2022/08/02 09:56:22;;;;;;;4.28;2.08;;;24.30;63.70;;;;;;5032607;28;20032;-76
2022/08/02 09:58:48;;;;;;;8.90;2.50;;;24.30;63.80;;;;;;5033432;28;20553;-76
2022/08/02 10:01:14;;;;;;;4.03;1.90;;;24.30;63.80;;;;;;5032381;28;20033;-76
2022/08/02 10:04:01;;;;;;;5.53;2.70;;;24.30;63.80;;;;;;5032284;28;20072;-76
2022/08/02 10:06:27;;;;;;;5.93;2.28;;;24.30;63.70;;;;;;5031929;28;20399;-76
2022/08/02 10:08:53;;;;;;;6.18;2.30;;;24.30;63.80;;;;;;5032121;28;20021;-76
2022/08/02 10:11:23;;;;;;;7.53;2.63;;;24.30;63.80;;;;;;5032211;28;20109;-76
2022/08/02 10:13:49;;;;;;;7.00;1.77;;;24.30;63.80;;;;;;5031927;28;20439;-76
2022/08/02 10:16:15;;;;;;;4.20;2.30;;;24.30;63.90;;;;;;5032143;28;20569;-76
2022/08/02 10:18:41;;;;;;;6.05;2.30;;;24.30;63.90;;;;;;5016878;28;20384;-76
2022/08/02 10:21:14;;;;;;;3.00;2.10;;;24.30;63.90;;;;;;5013372;28;20038;-76
2022/08/02 10:23:42;;;;;;;4.60;2.05;;;24.30;63.90;;;;;;5012289;28;20029;-76
2022/08/02 10:26:07;;;;;;;5.30;1.95;;;24.30;63.80;;;;;;5012395;28;20033;-76
2022/08/02 10:28:33;;;;;;;4.53;2.30;;;24.30;64.90;;;;;;5011724;28;20465;-76
2022/08/02 10:31:00;;;;;;;4.60;2.00;;;24.30;63.90;;;;;;5012166;28;20401;-76
2022/08/02 10:33:26;;;;;;;6.93;2.42;;;24.30;63.90;;;;;;5012157;28;20022;-76
2022/08/02 10:35:52;;;;;;;4.03;2.00;;;24.30;63.80;;;;;;5012101;28;20037;-76
2022/08/02 10:38:17;;;;;;;2.60;2.00;;;24.30;63.90;;;;;;5012127;28;20025;-76
2022/08/02 10:40:47;;;;;;;4.95;1.98;;;24.30;63.90;;;;;;5012199;28;20033;-76
2022/08/02 10:43:35;;;;;;;3.42;1.95;;;24.30;63.90;;;;;;5011706;28;20018;-76
2022/08/02 10:46:23;;;;;;;5.88;2.50;;;24.30;63.90;;;;;;5011952;28;20049;-76
2022/08/02 10:49:17;;;;;;;4.20;2.00;;;24.30;63.90;;;;;;5012003;28;20025;-76
2022/08/02 10:51:55;;;;;;;3.78;2.10;;;24.30;64.00;;;;;;5011710;28;20025;-76
2022/08/02 10:54:26;;;;;;;3.70;2.10;;;24.30;63.90;;;;;;5011880;28;20030;-76
2022/08/02 10:56:54;;;;;;;3.38;1.98;;;24.30;64.00;;;;;;5011484;28;20050;-76
2022/08/02 10:59:34;;;;;;;4.07;2.05;;;24.30;64.00;;;;;;5011979;28;20022;-77
2022/08/02 11:02:01;;;;;;;3.78;1.88;;;24.30;64.00;;;;;;5025467;28;20112;-76
2022/08/02 11:04:35;;;;;;;3.78;1.75;;;24.30;64.00;;;;;;5031364;28;20021;-77
2022/08/02 11:07:15;;;;;;;3.70;2.00;;;24.30;64.00;;;;;;5032476;28;20026;-76
2022/08/02 11:09:41;;;;;;;3.80;2.05;;;24.30;64.00;;;;;;5032451;28;20105;-76
2022/08/02 11:12:09;;;;;;;4.57;1.85;;;24.30;64.00;;;;;;5031030;28;20109;-76
2022/08/02 11:14:36;;;;;;;4.10;1.98;;;24.30;64.00;;;;;;5031266;28;20018;-76
2022/08/02 11:17:04;;;;;;;4.00;1.70;;;24.30;64.00;;;;;;5030721;28;20028;-77
2022/08/02 11:19:29;;;;;;;4.05;1.95;;;24.30;64.00;;;;;;5012609;28;20063;-76
2022/08/02 11:22:18;;;;;;;5.05;2.03;;;24.30;64.10;;;;;;5012366;28;20042;-76
2022/08/02 11:24:46;;;;;;;4.22;2.22;;;24.30;64.10;;;;;;5011327;28;20507;-76
2022/08/02 11:27:19;;;;;;;3.17;1.70;;;24.30;64.00;;;;;;5011291;28;20018;-76
2022/08/02 11:29:45;;;;;;;2.55;1.65;;;24.30;65.10;;;;;;5011104;28;20046;-77
2022/08/02 11:32:23;;;;;;;3.58;1.90;;;24.30;64.10;;;;;;5011503;28;20033;-76
2022/08/02 11:34:50;;;;;;;4.25;1.63;;;24.30;64.00;;;;;;5012405;28;20034;-76
2022/08/02 11:37:31;;;;;;;5.18;1.85;;;24.20;64.10;;;;;;5011487;28;20030;-76
2022/08/02 11:39:57;;;;;;;3.83;2.00;;;24.30;64.10;;;;;;5012374;28;20097;-76
2022/08/02 11:42:33;;;;;;;3.47;1.80;;;24.30;64.10;;;;;;5011152;28;20113;-76
2022/08/02 11:44:59;;;;;;;2.35;1.70;;;24.30;64.20;;;;;;5011178;28;20069;-76
2022/08/02 11:47:25;;;;;;;2.92;1.38;;;24.30;64.20;;;;;;5011457;28;20400;-76
2022/08/02 11:49:50;;;;;;;2.47;1.50;;;24.30;64.10;;;;;;5010994;28;20026;-76
2022/08/02 11:52:16;;;;;;;4.20;1.70;;;24.30;64.10;;;;;;5012256;28;20058;-76
2022/08/02 11:54:42;;;;;;;1.85;1.50;;;24.30;64.20;;;;;;5012087;28;20048;-76
2022/08/02 11:57:12;;;;;;;5.30;2.17;;;24.30;64.20;;;;;;5011008;28;20137;-77
2022/08/02 11:59:39;;;;;;;3.80;1.98;;;24.30;64.20;;;;;;5011101;28;20045;-76
2022/08/02 12:02:05;;;;;;;3.08;1.70;;;24.30;64.20;;;;;;5025478;28;20069;-77
2022/08/02 12:04:31;;;;;;;3.10;1.80;;;24.30;64.10;;;;;;5030733;28;20078;-76
2022/08/02 12:06:57;;;;;;;3.47;1.77;;;24.30;64.80;;;;;;5030728;28;20438;-76
2022/08/02 12:09:23;;;;;;;3.15;1.98;;;24.30;64.20;;;;;;5031792;28;20029;-76
2022/08/02 12:11:52;;;;;;;3.50;1.70;;;24.30;64.20;;;;;;5030769;28;20024;-77
2022/08/02 12:14:17;;;;;;;2.10;1.52;;;24.30;64.20;;;;;;5030737;28;20029;-76
2022/08/02 12:19:27;;;;;;;2.55;1.60;;;24.20;64.10;;;;;;5011322;28;20033;-77
2022/08/02 12:22:11;;;;;;;2.63;1.65;;;24.30;64.20;;;;;;5012011;28;20065;-76
2022/08/02 12:24:37;;;;;;;3.75;1.70;;;24.30;64.10;;;;;;5026932;28;20026;-76
2022/08/02 12:27:03;;;;;;;4.63;2.00;;;24.30;64.20;;;;;;5011773;28;20015;-76
2022/08/02 12:29:36;;;;;;;4.57;1.60;;;24.30;64.20;;;;;;5043773;28;20100;-76
2022/08/02 12:32:03;;;;;;;2.30;1.75;;;24.30;64.20;;;;;;5015135;28;20021;-76
2022/08/02 12:34:29;;;;;;;2.50;1.40;;;24.30;64.20;;;;;;5030803;28;20018;-77
2022/08/02 12:37:01;;;;;;;5.40;1.85;;;24.30;64.20;;;;;;5047054;28;20554;-77
2022/08/02 12:39:34;;;;;;;2.50;1.40;;;24.30;64.20;;;;;;5015359;28;20053;-77
2022/08/02 12:42:00;;;;;;;3.00;1.42;;;24.30;64.30;;;;;;5046410;28;20087;-76
2022/08/02 12:44:26;;;;;;;3.20;1.77;;;24.30;64.20;;;;;;5030644;28;20109;-76
2022/08/02 12:46:59;;;;;;;2.50;1.65;;;24.30;64.30;;;;;;5015324;28;20101;-76
2022/08/02 12:49:24;;;;;;;2.25;1.25;;;24.30;64.20;;;;;;5015183;28;20088;-77
2022/08/02 12:51:50;;;;;;;3.08;1.77;;;24.30;64.30;;;;;;5014763;28;20097;-77
2022/08/02 12:54:39;;;;;;;3.13;1.50;;;24.30;64.30;;;;;;5015149;28;20391;-77